createdAt,value
2023-02-08T00:04:27.515Z,10.73
2023-02-08T00:09:32.431Z,10.27
2023-02-08T00:14:37.506Z,10.17
2023-02-08T00:19:41.864Z,10.93
2023-02-08T00:24:46.596Z,8.20
2023-02-08T00:29:49.815Z,8.83
2023-02-08T00:34:53.195Z,8.90
2023-02-08T00:39:58.816Z,7.77
2023-02-08T00:45:02.083Z,7.33
2023-02-08T00:50:06.640Z,7.17
2023-02-08T00:55:11.553Z,6.23
2023-02-08T01:00:15.604Z,6.07
2023-02-08T01:05:18.968Z,5.23
2023-02-08T01:10:23.634Z,6.37
2023-02-08T01:15:27.113Z,7.40
2023-02-08T01:20:31.229Z,7.03
2023-02-08T01:25:36.114Z,6.53
2023-02-08T01:30:39.773Z,6.33
2023-02-08T01:35:43.234Z,5.87
2023-02-08T01:40:48.334Z,5.57
2023-02-08T01:45:51.846Z,5.50
2023-02-08T01:50:59.004Z,5.70
2023-02-08T01:56:07.577Z,5.93
2023-02-08T02:01:12.599Z,5.20
2023-02-08T02:06:20.029Z,5.40
2023-02-08T02:11:25.184Z,5.77
2023-02-08T02:16:28.616Z,5.17
2023-02-08T02:21:51.861Z,5.60
2023-02-08T02:27:46.558Z,5.73
2023-02-08T02:33:07.564Z,5.63
2023-02-08T02:38:15.900Z,5.77
2023-02-08T02:43:43.064Z,5.57
2023-02-08T02:48:54.273Z,6.40
2023-02-08T02:54:00.792Z,6.30
2023-02-08T02:59:08.228Z,5.97
2023-02-08T03:04:17.115Z,5.37
2023-02-08T03:09:48.277Z,5.60
2023-02-08T03:14:59.938Z,5.77
2023-02-08T03:20:11.156Z,5.50
2023-02-08T03:25:21.921Z,5.63
2023-02-08T03:30:32.180Z,5.07
2023-02-08T03:35:43.777Z,5.17
2023-02-08T03:40:49.272Z,5.50
2023-02-08T03:45:55.869Z,5.10
2023-02-08T03:51:02.573Z,5.53
2023-02-08T03:56:11.993Z,5.60
2023-02-08T04:01:19.993Z,5.73
2023-02-08T04:06:25.077Z,5.93
2023-02-08T04:11:28.442Z,6.17
2023-02-08T04:16:31.803Z,5.83
2023-02-08T04:21:36.650Z,5.80
2023-02-08T04:26:41.874Z,5.50
2023-02-08T04:31:45.331Z,5.87
2023-02-08T04:36:50.304Z,6.27
2023-02-08T04:41:53.678Z,5.83
2023-02-08T04:46:57.114Z,5.87
2023-02-08T04:52:02.140Z,5.80
2023-02-08T04:57:05.684Z,5.83
2023-02-08T05:02:09.093Z,6.20
2023-02-08T05:07:13.958Z,5.93
2023-02-08T05:12:18.362Z,6.10
2023-02-08T05:17:21.711Z,5.13
2023-02-08T05:22:26.588Z,5.67
2023-02-08T05:27:29.943Z,5.03
2023-02-08T05:32:33.309Z,6.10
2023-02-08T05:37:38.066Z,6.70
2023-02-08T05:42:42.524Z,6.13
2023-02-08T05:47:48.362Z,6.33
2023-02-08T05:52:53.015Z,6.87
2023-02-08T05:57:56.304Z,6.87
2023-02-08T06:02:59.882Z,6.67
2023-02-08T06:08:04.796Z,6.33
2023-02-08T06:13:08.086Z,5.67
2023-02-08T06:18:13.494Z,5.57
2023-02-08T06:23:18.177Z,5.97
2023-02-08T06:28:21.486Z,6.60
2023-02-08T06:33:25.368Z,7.20
2023-02-08T06:38:30.187Z,7.20
2023-02-08T06:43:37.682Z,6.20
2023-02-08T06:48:40.978Z,6.93
2023-02-08T06:53:47.400Z,6.60
2023-02-08T06:58:51.596Z,6.93
2023-02-08T07:03:56.052Z,6.70
2023-02-08T07:09:02.763Z,11.63
2023-02-08T07:14:06.273Z,6.97
2023-02-08T07:19:15.558Z,7.47
2023-02-08T07:24:40.447Z,6.97
2023-02-08T07:29:43.741Z,6.97
2023-02-08T07:34:47.117Z,7.83
2023-02-08T07:39:53.075Z,8.63
2023-02-08T07:45:02.487Z,9.17
2023-02-08T07:50:16.482Z,9.23
2023-02-08T07:55:29.144Z,10.53
2023-02-08T08:00:40.847Z,9.00
2023-02-08T08:05:53.529Z,8.20
2023-02-08T08:10:59.473Z,7.83
2023-02-08T08:16:03.027Z,8.00
2023-02-08T08:21:07.991Z,7.90
2023-02-08T08:26:16.643Z,8.00
2023-02-08T08:31:23.016Z,33.67
2023-02-08T08:36:26.292Z,10.47
2023-02-08T08:41:38.132Z,14.47
2023-02-08T08:46:42.519Z,8.53
2023-02-08T08:51:48.009Z,8.93
2023-02-08T08:56:57.390Z,9.07
2023-02-08T09:02:01.289Z,7.77
2023-02-08T09:07:04.704Z,7.83
2023-02-08T09:12:23.495Z,7.33
2023-02-08T09:17:34.768Z,6.67
2023-02-08T09:22:39.271Z,9.43
2023-02-08T09:27:43.989Z,7.97
2023-02-08T09:32:47.425Z,8.20
2023-02-08T09:37:54.594Z,7.55
2023-02-08T09:43:14.134Z,6.55
2023-02-08T09:48:22.914Z,6.95
2023-02-08T09:53:32.701Z,6.68
2023-02-08T09:58:40.015Z,6.75
2023-02-08T10:03:46.012Z,6.88
2023-02-08T10:08:52.703Z,6.30
2023-02-08T10:14:31.710Z,7.20
2023-02-08T10:19:47.656Z,8.17
2023-02-08T10:25:26.764Z,6.00
2023-02-08T10:30:40.695Z,6.60
2023-02-08T10:35:49.206Z,5.90
2023-02-08T10:40:56.722Z,5.53
2023-02-08T10:46:12.869Z,6.13
2023-02-08T10:51:22.814Z,6.37
2023-02-08T10:56:40.739Z,5.40
2023-02-08T11:01:48.100Z,5.73
2023-02-08T11:06:54.238Z,5.27
2023-02-08T11:11:59.823Z,4.40
2023-02-08T11:17:04.885Z,5.40
2023-02-08T11:22:08.403Z,5.27
2023-02-08T11:27:19.331Z,4.80
2023-02-08T11:32:24.034Z,4.07
2023-02-08T11:37:28.864Z,4.43
2023-02-08T11:42:37.856Z,4.33
2023-02-08T11:47:42.647Z,4.00
2023-02-08T11:52:56.579Z,3.37
2023-02-08T11:58:03.279Z,3.17
2023-02-08T12:03:14.552Z,3.30
2023-02-08T12:08:26.026Z,2.90
2023-02-08T12:13:59.100Z,3.37
2023-02-08T12:19:41.276Z,3.27
2023-02-08T12:24:50.367Z,3.40
2023-02-08T12:30:01.581Z,3.33
2023-02-08T12:35:53.877Z,3.13
2023-02-08T12:41:03.730Z,3.33
2023-02-08T12:46:23.477Z,3.00
2023-02-08T12:51:35.615Z,3.23
2023-02-08T12:56:53.636Z,3.20
2023-02-08T13:02:10.669Z,3.17
2023-02-08T13:07:19.360Z,3.10
2023-02-08T13:12:28.137Z,3.20
2023-02-08T13:17:43.127Z,3.63
2023-02-08T13:22:48.181Z,3.83
2023-02-08T13:27:52.987Z,3.27
2023-02-08T13:32:57.880Z,3.97
2023-02-08T13:38:06.246Z,3.77
2023-02-08T13:43:34.806Z,3.33
2023-02-08T13:48:48.112Z,3.33
2023-02-08T13:54:13.192Z,3.43
2023-02-08T13:59:36.349Z,3.07
2023-02-08T14:04:41.250Z,3.53
2023-02-08T14:10:04.066Z,3.43
2023-02-08T14:15:24.194Z,4.07
2023-02-08T14:20:32.424Z,3.80
2023-02-08T14:25:46.130Z,3.90
2023-02-08T14:30:53.593Z,4.07
2023-02-08T14:35:59.251Z,4.13
2023-02-08T14:41:05.282Z,4.63
2023-02-08T14:46:45.470Z,5.07
2023-02-08T14:51:55.384Z,4.90
2023-02-08T14:57:02.770Z,4.53
2023-02-08T15:02:13.670Z,4.97
2023-02-08T15:07:30.830Z,5.37
2023-02-08T15:12:39.976Z,5.37
2023-02-08T15:17:47.634Z,5.50
2023-02-08T15:23:00.804Z,5.47
2023-02-08T15:28:18.296Z,5.57
2023-02-08T15:33:22.252Z,6.00
2023-02-08T15:38:25.871Z,6.03
2023-02-08T15:43:30.947Z,7.17
2023-02-08T15:48:36.308Z,7.23
2023-02-08T15:53:43.231Z,6.80
2023-02-08T15:58:52.851Z,6.73
2023-02-08T16:04:00.711Z,6.93
2023-02-08T16:09:05.213Z,6.80
2023-02-08T16:14:15.828Z,7.60
2023-02-08T16:19:25.004Z,8.13
2023-02-08T16:24:28.884Z,8.33
2023-02-08T16:29:35.784Z,7.80
2023-02-08T16:34:40.716Z,7.80
2023-02-08T16:39:55.193Z,8.27
2023-02-08T16:45:14.290Z,8.27
2023-02-08T16:50:20.148Z,11.33
2023-02-08T16:55:26.117Z,8.70
2023-02-08T17:00:32.988Z,8.17
2023-02-08T17:05:39.516Z,9.10
2023-02-08T17:10:44.360Z,8.23
2023-02-08T17:15:51.488Z,9.10
2023-02-08T17:20:59.708Z,8.17
2023-02-08T17:26:03.119Z,12.23
2023-02-08T17:31:10.483Z,8.43
2023-02-08T17:36:16.143Z,9.60
2023-02-08T17:41:21.472Z,10.10
2023-02-08T17:46:28.547Z,9.43
2023-02-08T17:51:34.461Z,11.47
2023-02-08T17:56:37.972Z,10.00
2023-02-08T18:01:51.649Z,8.80
2023-02-08T18:06:55.021Z,9.00
2023-02-08T18:11:59.573Z,9.17
2023-02-08T18:17:04.500Z,8.00
2023-02-08T18:22:08.624Z,8.90
2023-02-08T18:27:36.076Z,9.70
2023-02-08T18:32:40.791Z,10.97
2023-02-08T18:37:52.600Z,9.23
2023-02-08T18:42:56.509Z,8.57
2023-02-08T18:48:01.345Z,9.33
2023-02-08T18:53:04.895Z,10.00
2023-02-08T18:58:08.404Z,12.30
2023-02-08T19:03:13.450Z,8.77
2023-02-08T19:08:17.589Z,8.57
2023-02-08T19:13:21.040Z,9.40
2023-02-08T19:18:25.801Z,9.27
2023-02-08T19:23:29.213Z,9.37
2023-02-08T19:28:36.564Z,8.83
2023-02-08T19:33:42.785Z,8.17
2023-02-08T19:38:46.487Z,9.07
2023-02-08T19:43:50.359Z,7.97
2023-02-08T19:49:00.299Z,8.80
2023-02-08T19:54:07.281Z,8.20
2023-02-08T19:59:21.177Z,7.80
2023-02-08T20:04:26.822Z,8.87
2023-02-08T20:09:30.246Z,8.67
2023-02-08T20:14:34.880Z,8.43
2023-02-08T20:19:39.976Z,8.97
2023-02-08T20:24:43.436Z,9.53
2023-02-08T20:29:47.352Z,9.93
2023-02-08T20:34:59.523Z,8.70
2023-02-08T20:40:05.210Z,9.80
2023-02-08T20:45:11.073Z,9.17
2023-02-08T20:50:19.566Z,9.93
2023-02-08T20:55:24.723Z,9.67
2023-02-08T21:00:40.252Z,8.07
2023-02-08T21:05:46.369Z,9.27
2023-02-08T21:10:49.813Z,8.83
2023-02-08T21:15:53.365Z,9.57
2023-02-08T21:20:58.282Z,9.23
2023-02-08T21:26:02.116Z,8.27
2023-02-08T21:31:11.407Z,9.03
2023-02-08T21:36:19.049Z,9.00
2023-02-08T21:41:25.590Z,9.70
2023-02-08T21:46:29.137Z,11.57
2023-02-08T21:51:56.772Z,11.97
2023-02-08T21:57:01.372Z,12.77
2023-02-08T22:02:05.834Z,9.30
2023-02-08T22:07:10.577Z,8.77
2023-02-08T22:12:20.825Z,9.93
2023-02-08T22:17:24.503Z,11.03
2023-02-08T22:22:33.267Z,10.30
2023-02-08T22:27:36.483Z,10.90
2023-02-08T22:32:41.062Z,10.30
2023-02-08T22:37:46.209Z,10.20
2023-02-08T22:42:51.763Z,9.63
2023-02-08T22:47:56.138Z,9.40
2023-02-08T22:53:01.861Z,9.13
2023-02-08T22:58:05.241Z,11.63
2023-02-08T23:03:09.656Z,11.90
2023-02-08T23:08:16.555Z,9.40
2023-02-08T23:13:21.800Z,9.40
2023-02-08T23:18:25.589Z,8.90
2023-02-08T23:23:31.311Z,9.23
2023-02-08T23:28:34.909Z,10.00
2023-02-08T23:33:39.434Z,10.03
2023-02-08T23:38:45.580Z,9.10
2023-02-08T23:43:50.147Z,10.43
2023-02-08T23:48:54.015Z,10.37
2023-02-08T23:53:58.800Z,11.17
2023-02-08T23:59:02.447Z,12.33
